Time;durP1;ratioP1;P1;durP2;ratioP2;P2;SDS_P1;SDS_P2;PMS_P1;PMS_P2;Temp;Humidity;BMP_temperature;BMP_pressure;BME280_temperature;BME280_humidity;BME280_pressure;Samples;Min_cycle;Max_cycle;Signal;HPM_P1;HPM_P2
2021/08/08 00:00:30;;;;;;;10.32;3.22;;;14.90;99.90;;;14.69;97.86;100699.78;4120742;28;20126;-77
2021/08/08 00:02:36;;;;;;;12.57;3.03;;;14.90;99.90;;;14.68;97.76;100701.63;4120916;28;20035;-77
2021/08/08 00:04:37;;;;;;;17.23;3.90;;;14.90;99.90;;;14.51;96.88;100686.06;4120734;28;20498;-77
2021/08/08 00:06:40;;;;;;;14.35;3.90;;;14.90;99.90;;;14.65;97.27;100709.13;4120713;28;20026;-77
2021/08/08 00:08:41;;;;;;;12.65;3.40;;;14.80;99.90;;;14.60;97.58;100698.25;4120579;28;20054;-77
2021/08/08 00:10:42;;;;;;;16.73;4.00;;;14.90;99.90;;;14.43;97.28;100686.97;4135436;28;20034;-77
2021/08/08 00:12:43;;;;;;;18.70;4.68;;;14.80;99.90;;;14.48;97.63;100689.09;4120429;28;20033;-77
2021/08/08 00:14:43;;;;;;;17.27;4.25;;;14.80;99.90;;;14.59;97.75;100707.19;4120608;28;20031;-77
2021/08/08 00:16:44;;;;;;;15.40;4.45;;;14.80;99.90;;;14.49;97.80;100693.38;4120432;28;20045;-78
2021/08/08 00:18:45;;;;;;;12.18;4.30;;;14.80;99.90;;;14.55;97.76;100701.44;4120684;28;20097;-77
2021/08/08 00:20:46;;;;;;;16.48;4.47;;;14.80;99.90;;;14.52;97.37;100703.63;4120555;28;20033;-77
2021/08/08 00:22:47;;;;;;;11.70;3.85;;;14.80;99.90;;;14.48;98.05;100697.03;4120711;28;20037;-78
2021/08/08 00:24:48;;;;;;;20.45;5.28;;;14.80;99.90;;;14.50;97.86;100702.97;4119021;28;20034;-77
2021/08/08 00:26:49;;;;;;;12.93;5.38;;;14.80;99.90;;;14.54;97.41;100702.47;4120216;28;20027;-77
2021/08/08 00:28:50;;;;;;;11.80;4.20;;;14.80;99.90;;;14.51;97.82;100709.94;4134865;28;20026;-77
2021/08/08 00:30:51;;;;;;;17.25;5.45;;;14.80;99.90;;;14.61;96.72;100703.34;4119287;28;20058;-77
2021/08/08 00:32:53;;;;;;;16.73;4.82;;;14.80;99.90;;;14.46;97.28;100699.03;4135070;28;20022;-77
2021/08/08 00:34:54;;;;;;;13.32;4.72;;;14.80;99.90;;;14.43;98.01;100708.19;4135066;28;20049;-77
2021/08/08 00:36:55;;;;;;;20.05;4.90;;;14.80;99.90;;;14.57;97.31;100699.44;4119217;28;20042;-77
2021/08/08 00:38:56;;;;;;;18.33;4.45;;;14.80;99.90;;;14.54;97.06;100696.31;4135175;28;20026;-77
2021/08/08 00:40:57;;;;;;;11.40;3.90;;;14.80;99.90;;;14.54;97.75;100701.63;4119976;28;20062;-77
2021/08/08 00:42:58;;;;;;;14.07;4.45;;;14.80;99.90;;;14.52;97.75;100699.13;4118781;28;20031;-77
2021/08/08 00:44:59;;;;;;;10.68;3.53;;;14.80;99.90;;;14.49;97.75;100701.31;4120145;28;20031;-77
2021/08/08 00:47:00;;;;;;;15.40;5.65;;;14.80;99.90;;;14.53;97.73;100699.97;4120146;28;20030;-77
2021/08/08 00:49:01;;;;;;;12.50;3.65;;;14.80;99.90;;;14.57;97.55;100701.25;4102997;29;20042;-77
2021/08/08 00:51:02;;;;;;;7.65;3.20;;;14.80;99.90;;;14.50;97.44;100695.84;4118882;28;20022;-77
2021/08/08 00:53:06;;;;;;;17.75;4.82;;;14.80;99.90;;;14.43;96.87;100696.75;4119106;28;20618;-77
2021/08/08 00:55:09;;;;;;;11.57;4.82;;;14.80;99.90;;;14.39;97.60;100705.06;4135034;28;20117;-77
2021/08/08 00:57:11;;;;;;;12.75;3.60;;;14.80;99.90;;;14.40;97.82;100696.09;4135159;28;20457;-77
2021/08/08 00:59:12;;;;;;;12.38;3.13;;;14.80;99.90;;;14.42;97.52;100693.28;4119746;28;20033;-77
2021/08/08 01:01:19;;;;;;;10.93;3.90;;;14.80;99.90;;;14.40;97.83;100690.81;4120025;28;20117;-77
2021/08/08 01:03:22;;;;;;;13.43;3.88;;;14.80;99.90;;;14.37;98.29;100688.50;4119902;28;20111;-77
2021/08/08 01:05:33;;;;;;;16.90;4.10;;;14.80;99.90;;;14.44;98.09;100685.97;4118644;28;20041;-77
2021/08/08 01:07:53;;;;;;;17.25;3.88;;;14.70;99.90;;;14.51;96.75;100692.19;4118816;28;20030;-78
2021/08/08 01:09:57;;;;;;;15.32;4.72;;;14.70;99.90;;;14.50;96.64;100695.84;4118833;28;20035;-78
2021/08/08 01:11:59;;;;;;;11.40;3.85;;;14.70;99.90;;;14.44;97.64;100698.41;4118885;28;20023;-78
2021/08/08 01:14:01;;;;;;;11.98;3.83;;;14.70;99.90;;;14.43;98.27;100704.69;4134426;28;20375;-77
2021/08/08 01:16:03;;;;;;;11.70;4.22;;;14.70;99.90;;;14.46;98.38;100704.34;4118542;28;20031;-77
2021/08/08 01:18:06;;;;;;;14.85;4.30;;;14.70;99.90;;;14.49;98.24;100706.63;4118591;28;20082;-78
2021/08/08 01:20:11;;;;;;;14.48;4.47;;;14.70;99.90;;;14.46;98.02;100693.72;4102498;28;20030;-77
2021/08/08 01:22:12;;;;;;;14.00;4.90;;;14.70;99.90;;;14.50;97.94;100708.28;4119785;28;20166;-78
2021/08/08 01:24:13;;;;;;;11.10;3.67;;;14.70;99.90;;;14.48;97.80;100707.66;4119608;28;20443;-78
2021/08/08 01:26:14;;;;;;;14.18;3.67;;;14.70;99.90;;;14.44;98.20;100695.75;4119685;28;20023;-77
2021/08/08 01:28:16;;;;;;;12.40;3.20;;;14.70;99.90;;;14.48;97.81;100705.00;4134280;28;20126;-77
2021/08/08 01:30:17;;;;;;;14.00;4.05;;;14.60;99.90;;;14.48;97.82;100703.19;4150857;28;20072;-77
2021/08/08 01:32:18;;;;;;;12.20;3.33;;;14.70;99.90;;;14.51;97.10;100702.00;4118534;28;20035;-78
2021/08/08 01:34:19;;;;;;;11.25;3.40;;;14.70;99.90;;;14.48;97.62;100703.19;4134526;28;20049;-77
2021/08/08 01:36:20;;;;;;;11.20;3.25;;;14.70;99.90;;;14.35;97.94;100701.16;4119562;28;20035;-77
2021/08/08 01:38:21;;;;;;;12.60;4.00;;;14.60;99.90;;;14.35;98.39;100703.81;4119733;28;20110;-77
2021/08/08 01:40:45;;;;;;;13.57;3.92;;;14.60;99.90;;;14.39;98.30;100710.38;4153291;28;20029;-78
2021/08/08 01:42:48;;;;;;;10.00;4.25;;;14.60;99.90;;;14.39;98.70;100704.28;4120544;28;20106;-77
2021/08/08 01:44:54;;;;;;;16.63;4.45;;;14.60;99.90;;;14.37;98.73;100704.44;4110566;28;20035;-77
2021/08/08 01:46:57;;;;;;;14.52;3.33;;;14.60;99.90;;;14.47;98.06;100698.03;4121553;28;20511;-78
2021/08/08 01:48:59;;;;;;;12.30;3.80;;;14.60;99.90;;;14.42;98.15;100705.72;4121707;28;20082;-77
2021/08/08 01:51:01;;;;;;;10.80;3.35;;;14.50;99.90;;;14.56;97.89;100707.56;4122671;28;20030;-78
2021/08/08 01:53:03;;;;;;;18.92;4.25;;;14.60;99.90;;;14.55;96.57;100695.28;4122799;28;20034;-77
2021/08/08 01:55:04;;;;;;;11.52;3.45;;;14.60;99.90;;;14.48;96.56;100700.53;4122726;28;20630;-77
2021/08/08 01:57:08;;;;;;;11.85;3.67;;;14.60;99.90;;;14.30;97.50;100692.06;4121477;28;20035;-77
2021/08/08 01:59:09;;;;;;;12.45;4.38;;;14.60;99.90;;;14.32;97.90;100693.56;4121292;28;20531;-78
2021/08/08 02:01:10;;;;;;;10.23;3.47;;;14.50;99.90;;;14.30;98.43;100694.72;4122669;28;20039;-78
2021/08/08 02:03:11;;;;;;;17.80;4.78;;;14.50;99.90;;;14.27;98.63;100695.91;4122643;28;20030;-77
2021/08/08 02:05:12;;;;;;;11.80;3.58;;;14.50;99.90;;;14.27;98.65;100697.72;4122459;28;20115;-77
2021/08/08 02:07:18;;;;;;;7.38;2.70;;;14.50;99.90;;;14.27;98.85;100698.56;4122707;28;20030;-77
2021/08/08 02:09:20;;;;;;;12.50;3.92;;;14.50;99.90;;;14.37;97.37;100690.34;4121138;28;20029;-77
2021/08/08 02:11:21;;;;;;;8.40;3.35;;;14.50;99.90;;;14.37;97.21;100690.34;4121410;28;20045;-77
2021/08/08 02:13:21;;;;;;;15.48;3.90;;;14.50;99.90;;;14.27;97.82;100684.47;4137080;28;20034;-77
2021/08/08 02:15:23;;;;;;;10.70;2.92;;;14.50;99.90;;;14.38;97.04;100676.06;4105066;28;20118;-77
2021/08/08 02:17:23;;;;;;;12.57;3.83;;;14.50;99.90;;;14.42;96.71;100700.41;4122455;28;20042;-77
2021/08/08 02:19:25;;;;;;;13.27;3.15;;;14.50;99.90;;;14.38;96.24;100699.97;4121234;28;20031;-77
2021/08/08 02:21:26;;;;;;;10.20;3.70;;;14.50;99.90;;;14.29;97.41;100691.22;4137435;28;20069;-77
2021/08/08 02:23:27;;;;;;;13.57;3.20;;;14.50;99.90;;;14.34;97.44;100690.69;4104871;28;20031;-77
2021/08/08 02:25:28;;;;;;;9.82;3.38;;;14.50;99.90;;;14.09;98.23;100671.53;4120839;28;20105;-77
2021/08/08 02:27:31;;;;;;;8.70;3.15;;;14.50;99.90;;;14.13;98.67;100691.38;4120585;28;20026;-78
2021/08/08 02:29:31;;;;;;;10.40;3.08;;;14.50;99.90;;;14.16;98.86;100692.84;4105189;28;20094;-77
2021/08/08 02:31:51;;;;;;;13.13;3.85;;;14.50;99.90;;;14.29;98.45;100698.34;4088896;29;20031;-77
2021/08/08 02:33:51;;;;;;;12.90;3.42;;;14.50;99.90;;;14.33;98.21;100699.69;4105015;28;20506;-77
2021/08/08 02:35:52;;;;;;;12.57;3.33;;;14.50;99.90;;;14.36;97.56;100701.97;4106081;28;20031;-77
2021/08/08 02:37:53;;;;;;;10.32;3.85;;;14.50;99.90;;;14.24;97.85;100693.59;4136800;28;20049;-77
2021/08/08 02:39:54;;;;;;;14.55;3.50;;;14.50;99.90;;;14.24;98.44;100698.09;4125277;28;20058;-77
2021/08/08 02:41:55;;;;;;;12.90;3.67;;;14.50;99.90;;;14.20;98.61;100689.66;4104467;28;20039;-77
2021/08/08 02:43:57;;;;;;;14.57;3.72;;;14.40;99.90;;;14.17;98.43;100692.66;4152629;28;20030;-77
2021/08/08 02:45:58;;;;;;;15.57;4.60;;;14.40;99.90;;;14.25;98.16;100694.41;4120622;28;20105;-77
2021/08/08 02:47:59;;;;;;;10.60;3.50;;;14.40;99.90;;;14.16;98.38;100700.78;4121995;28;20085;-77
2021/08/08 02:49:59;;;;;;;14.65;4.30;;;14.40;99.90;;;14.20;98.70;100696.78;4120564;28;20487;-77
2021/08/08 02:52:01;;;;;;;16.33;4.38;;;14.40;99.90;;;14.24;98.15;100701.56;4153040;28;20452;-77
2021/08/08 02:54:02;;;;;;;16.85;3.75;;;14.40;99.90;;;14.09;99.04;100692.75;4121676;28;20027;-77
2021/08/08 02:56:03;;;;;;;10.98;4.03;;;14.40;99.90;;;14.07;99.66;100700.03;4120617;28;20429;-77
2021/08/08 02:58:04;;;;;;;17.60;4.70;;;14.30;99.90;;;13.99;99.34;100688.69;4136457;28;20030;-77
2021/08/08 03:00:06;;;;;;;12.13;3.75;;;14.30;99.90;;;14.18;98.96;100696.97;4136711;28;20043;-77
2021/08/08 03:02:07;;;;;;;16.65;4.68;;;14.30;99.90;;;14.03;98.83;100682.03;4104344;29;20019;-77
2021/08/08 03:04:08;;;;;;;16.15;3.78;;;14.40;99.90;;;14.13;99.05;100694.03;4136792;28;20037;-77
2021/08/08 03:06:11;;;;;;;13.02;4.05;;;14.30;99.90;;;14.14;99.48;100689.53;4136578;28;20026;-77
2021/08/08 03:08:12;;;;;;;11.27;3.15;;;14.30;99.90;;;14.40;97.04;100696.09;4136325;28;20030;-77
2021/08/08 03:10:13;;;;;;;11.48;3.40;;;14.50;99.90;;;14.29;97.62;100693.06;4104498;28;20034;-78
2021/08/08 03:12:14;;;;;;;14.70;4.13;;;14.50;99.90;;;14.16;98.12;100692.84;4121695;28;20038;-77
2021/08/08 03:14:17;;;;;;;11.00;3.63;;;14.40;99.90;;;14.25;98.86;100719.13;4121407;28;20034;-77
2021/08/08 03:16:18;;;;;;;18.25;3.78;;;14.40;99.90;;;14.12;99.18;100708.31;4152757;28;20026;-77
2021/08/08 03:18:19;;;;;;;11.23;3.85;;;14.40;99.90;;;14.18;98.77;100718.22;4136497;28;20030;-77
2021/08/08 03:20:20;;;;;;;12.43;3.58;;;14.50;99.90;;;14.12;99.62;100718.94;4121654;28;20546;-77
2021/08/08 03:22:21;;;;;;;19.55;4.70;;;14.40;99.90;;;14.22;99.72;100716.00;4121460;28;20023;-78
2021/08/08 03:24:22;;;;;;;15.50;3.92;;;14.40;99.90;;;14.46;97.70;100712.31;4121335;28;20474;-78
2021/08/08 03:26:23;;;;;;;11.25;3.63;;;14.50;99.90;;;14.37;98.54;100712.41;4121269;28;20105;-77
2021/08/08 03:28:24;;;;;;;12.18;4.15;;;14.50;99.90;;;14.39;97.32;100701.63;4119807;28;20586;-77
2021/08/08 03:30:25;;;;;;;10.90;3.90;;;14.50;99.90;;;14.48;96.53;100705.84;4121311;28;20034;-77
2021/08/08 03:32:26;;;;;;;16.00;3.75;;;14.60;99.90;;;14.41;97.45;100696.94;4121241;28;20035;-78
2021/08/08 03:34:27;;;;;;;10.05;3.53;;;14.60;99.90;;;14.34;97.31;100694.19;4121106;28;20035;-77
2021/08/08 03:36:28;;;;;;;14.98;4.80;;;14.60;99.90;;;14.25;97.94;100697.06;4121246;28;20073;-77
2021/08/08 03:38:29;;;;;;;16.15;4.82;;;14.60;99.90;;;14.26;98.01;100704.84;4121192;28;20031;-77
2021/08/08 03:40:31;;;;;;;10.43;3.70;;;14.60;99.90;;;14.20;97.97;100712.69;4120860;28;20073;-77
2021/08/08 03:42:32;;;;;;;10.07;3.60;;;14.50;99.90;;;14.13;98.50;100706.47;4119469;28;20521;-77
2021/08/08 03:44:33;;;;;;;15.60;3.72;;;14.50;99.90;;;14.22;97.55;100711.50;4119696;28;20063;-78
2021/08/08 03:46:34;;;;;;;10.25;3.47;;;14.50;99.90;;;14.15;97.19;100707.94;4119988;28;20019;-78
2021/08/08 03:48:35;;;;;;;15.40;3.67;;;14.50;99.90;;;14.02;98.05;100713.03;4136189;28;20030;-77
2021/08/08 03:50:39;;;;;;;8.90;3.53;;;14.40;99.90;;;14.14;98.12;100708.94;4119818;28;20127;-78
2021/08/08 03:52:40;;;;;;;11.85;4.03;;;14.40;99.90;;;14.15;97.15;100702.66;4135870;28;20051;-77
2021/08/08 03:54:41;;;;;;;12.77;4.10;;;14.40;99.90;;;14.11;97.60;100714.59;4135634;28;20122;-78
2021/08/08 03:56:42;;;;;;;16.63;4.75;;;14.40;99.90;;;14.00;97.60;100719.53;4120929;28;20089;-77
2021/08/08 03:58:43;;;;;;;11.32;4.43;;;14.30;99.90;;;13.99;98.38;100724.00;4119393;28;20093;-77
2021/08/08 04:00:44;;;;;;;12.93;4.22;;;14.30;99.90;;;14.12;97.63;100724.22;4120635;28;20035;-78
2021/08/08 04:02:45;;;;;;;7.63;4.00;;;14.30;99.90;;;13.93;97.90;100711.44;4120233;28;20037;-77
2021/08/08 04:04:46;;;;;;;10.18;4.25;;;14.30;99.90;;;14.16;97.83;100717.53;4120659;28;20475;-77
2021/08/08 04:06:47;;;;;;;16.10;5.30;;;14.30;99.90;;;13.99;98.67;100728.47;4103407;28;20035;-77
2021/08/08 04:08:48;;;;;;;11.63;4.18;;;14.30;99.90;;;14.09;98.85;100737.03;4135263;28;20022;-78
2021/08/08 04:10:49;;;;;;;10.55;4.45;;;14.30;99.90;;;13.97;99.19;100731.31;4120688;28;20111;-77
2021/08/08 04:12:50;;;;;;;11.63;4.65;;;14.30;99.90;;;14.11;98.52;100732.34;4120367;28;20026;-77
2021/08/08 04:14:51;;;;;;;11.32;3.92;;;14.30;99.90;;;14.07;98.48;100737.19;4120535;28;20085;-77
2021/08/08 04:16:52;;;;;;;9.93;4.07;;;14.30;99.90;;;13.97;99.82;100728.66;4118969;28;20039;-77
2021/08/08 04:18:52;;;;;;;13.82;3.95;;;14.30;99.90;;;13.96;99.74;100734.13;4120511;28;20034;-77
2021/08/08 04:20:53;;;;;;;12.52;4.85;;;14.30;99.90;;;14.12;99.45;100742.78;4120409;28;20038;-77
2021/08/08 04:22:54;;;;;;;15.73;4.43;;;14.30;99.90;;;14.04;99.34;100747.31;4120416;28;20499;-78
2021/08/08 04:24:55;;;;;;;11.73;4.60;;;14.20;99.90;;;13.98;99.80;100732.94;4128578;28;20034;-77
2021/08/08 04:26:56;;;;;;;17.92;5.25;;;14.20;99.90;;;13.77;100.00;100715.03;4119324;28;20687;-77
2021/08/08 04:28:57;;;;;;;13.10;4.10;;;14.10;99.90;;;13.69;100.00;100738.13;4120153;28;20054;-77
2021/08/08 04:30:58;;;;;;;13.95;4.05;;;14.10;99.90;;;13.71;100.00;100741.44;4120417;28;20027;-77
2021/08/08 04:32:59;;;;;;;17.35;4.40;;;14.10;99.90;;;13.65;100.00;100729.72;4120280;28;20037;-77
2021/08/08 04:35:01;;;;;;;10.25;4.43;;;14.00;99.90;;;13.63;100.00;100742.31;4120418;28;20030;-77
2021/08/08 04:37:03;;;;;;;12.77;4.05;;;13.90;99.90;;;13.70;100.00;100745.09;4119221;28;20568;-77
2021/08/08 04:39:03;;;;;;;14.63;4.05;;;13.90;99.90;;;13.67;100.00;100748.09;4119034;28;20492;-77
2021/08/08 04:41:05;;;;;;;11.35;3.83;;;14.00;99.90;;;13.60;100.00;100745.31;4120001;28;20058;-77
2021/08/08 04:43:06;;;;;;;11.75;4.50;;;13.90;99.90;;;13.69;100.00;100754.03;4151401;28;20033;-77
2021/08/08 04:45:07;;;;;;;15.80;4.72;;;13.90;99.90;;;13.55;100.00;100734.44;4135033;28;20050;-77
2021/08/08 04:47:08;;;;;;;14.90;4.20;;;13.90;99.90;;;13.56;100.00;100740.56;4120338;28;20023;-78
2021/08/08 04:49:09;;;;;;;15.93;3.78;;;13.80;99.90;;;13.45;100.00;100752.38;4120053;28;20479;-77
2021/08/08 04:51:10;;;;;;;10.77;3.65;;;13.80;99.90;;;13.43;100.00;100750.91;4119098;28;20077;-77
2021/08/08 04:53:16;;;;;;;11.95;4.00;;;13.80;99.90;;;13.34;100.00;100739.53;4135126;28;20041;-77
2021/08/08 04:55:17;;;;;;;16.58;5.53;;;13.70;99.90;;;13.56;100.00;100764.41;4120119;28;20035;-77
2021/08/08 04:57:18;;;;;;;13.40;3.78;;;13.80;99.90;;;13.64;100.00;100759.88;4134521;28;20057;-77
2021/08/08 04:59:19;;;;;;;13.18;3.78;;;13.80;99.90;;;13.52;100.00;100734.78;4120288;28;20034;-78
2021/08/08 05:01:20;;;;;;;11.75;4.68;;;13.80;99.90;;;13.62;100.00;100753.13;4119703;28;20601;-78
2021/08/08 05:03:21;;;;;;;10.20;3.67;;;13.80;99.90;;;13.71;100.00;100758.16;4120082;28;20023;-77
2021/08/08 05:05:22;;;;;;;11.93;4.20;;;13.80;99.90;;;13.57;100.00;100735.06;4119838;28;20030;-78
2021/08/08 05:07:23;;;;;;;15.20;4.45;;;13.90;99.90;;;13.58;100.00;100747.34;4120270;28;20050;-78
2021/08/08 05:09:24;;;;;;;11.80;4.57;;;13.80;99.90;;;13.69;100.00;100746.09;4120200;28;20031;-78
2021/08/08 05:11:25;;;;;;;12.80;4.07;;;13.90;99.90;;;13.76;100.00;100747.88;4118709;28;20113;-77
2021/08/08 05:13:28;;;;;;;11.85;4.13;;;13.90;99.90;;;14.08;99.84;100759.22;4117744;28;20065;-77
2021/08/08 05:15:29;;;;;;;9.45;2.97;;;14.00;99.90;;;13.89;100.00;100757.06;4134932;28;20027;-77
2021/08/08 05:17:29;;;;;;;11.43;3.90;;;14.10;99.90;;;14.04;99.55;100753.44;4134697;28;20038;-77
2021/08/08 05:19:31;;;;;;;8.77;3.20;;;14.10;99.90;;;13.85;100.00;100754.78;4134820;28;20027;-77
2021/08/08 05:21:32;;;;;;;14.65;4.22;;;14.10;99.90;;;13.96;100.00;100750.88;4118591;28;20070;-77
2021/08/08 05:23:35;;;;;;;11.77;4.63;;;14.10;99.90;;;14.13;97.78;100757.69;4116344;28;20023;-77
2021/08/08 05:25:35;;;;;;;8.70;3.97;;;14.20;99.90;;;13.94;98.75;100738.81;4118533;28;20581;-77
2021/08/08 05:27:37;;;;;;;10.30;2.92;;;14.20;99.90;;;13.91;100.00;100773.63;4118623;28;20027;-77
2021/08/08 05:29:38;;;;;;;12.15;4.85;;;14.10;99.90;;;13.78;100.00;100758.28;4134485;28;20027;-77
2021/08/08 05:31:40;;;;;;;11.05;3.53;;;14.10;99.90;;;13.84;99.82;100760.25;4118573;28;20023;-77
2021/08/08 05:33:41;;;;;;;10.95;3.60;;;14.10;99.90;;;13.81;100.00;100771.19;4134845;28;20030;-77
2021/08/08 05:35:42;;;;;;;13.05;4.25;;;14.10;99.90;;;13.65;100.00;100755.41;4119783;28;20038;-77
2021/08/08 05:37:43;;;;;;;10.20;3.42;;;14.00;99.90;;;13.71;100.00;100767.94;4119676;28;20034;-77
2021/08/08 05:39:44;;;;;;;10.73;3.83;;;14.00;99.90;;;13.75;100.00;100763.94;4119296;28;20109;-77
2021/08/08 05:41:45;;;;;;;18.55;4.40;;;14.10;99.90;;;13.59;100.00;100769.38;4119406;28;20422;-77
2021/08/08 05:43:46;;;;;;;8.63;3.15;;;14.00;99.90;;;13.68;100.00;100778.91;4134406;28;20033;-77
2021/08/08 05:45:47;;;;;;;12.73;3.75;;;14.00;99.90;;;13.55;100.00;100768.06;4118271;28;20039;-77
2021/08/08 05:47:50;;;;;;;11.77;3.92;;;14.00;99.90;;;13.51;100.00;100764.09;4134396;28;20109;-77
2021/08/08 05:49:51;;;;;;;7.35;2.80;;;14.00;99.90;;;13.79;99.01;100775.88;4118406;28;20027;-77
2021/08/08 05:51:52;;;;;;;10.63;3.28;;;14.00;99.90;;;13.64;100.00;100761.72;4119642;28;20023;-77
2021/08/08 05:53:53;;;;;;;8.98;3.60;;;14.00;99.90;;;13.61;99.98;100748.81;4118404;28;20031;-77
2021/08/08 05:55:54;;;;;;;11.45;3.60;;;14.10;99.90;;;13.80;99.32;100766.88;4119416;28;20023;-77
2021/08/08 05:57:55;;;;;;;10.65;2.95;;;14.10;99.90;;;13.89;98.88;100765.03;4119316;28;20038;-77
2021/08/08 05:59:56;;;;;;;9.75;3.83;;;14.20;99.90;;;13.83;99.29;100777.16;4118203;28;20031;-77
2021/08/08 06:01:57;;;;;;;10.52;3.47;;;14.20;99.90;;;13.76;99.39;100761.13;4111376;28;20031;-77
2021/08/08 06:03:58;;;;;;;11.85;4.18;;;14.20;99.90;;;13.72;99.84;100790.81;4115468;28;20102;-77
2021/08/08 06:05:58;;;;;;;8.90;2.95;;;14.20;99.90;;;13.79;99.60;100776.69;4116060;28;20030;-77
2021/08/08 06:07:59;;;;;;;11.90;3.50;;;14.20;99.90;;;13.96;99.02;100782.69;4118235;28;20069;-77
2021/08/08 06:10:01;;;;;;;9.07;2.95;;;14.20;99.90;;;14.00;99.43;100794.63;4118162;28;20090;-77
2021/08/08 06:12:03;;;;;;;11.75;3.08;;;14.30;99.90;;;13.98;98.82;100782.53;4118248;28;20391;-77
2021/08/08 06:14:04;;;;;;;6.78;2.63;;;14.30;99.90;;;14.00;98.40;100793.78;4117760;28;20050;-77
2021/08/08 06:16:05;;;;;;;9.25;2.88;;;14.40;99.90;;;14.03;98.76;100794.25;4117980;28;20066;-77
2021/08/08 06:18:06;;;;;;;6.25;3.00;;;14.40;99.90;;;13.97;99.06;100786.19;4119480;28;20059;-77
2021/08/08 06:20:09;;;;;;;9.45;2.72;;;14.40;99.90;;;13.86;99.58;100782.94;4101870;28;20030;-77
2021/08/08 06:22:11;;;;;;;8.82;3.67;;;14.40;99.90;;;14.05;99.72;100808.16;4150534;28;20022;-77
2021/08/08 06:24:12;;;;;;;8.02;2.58;;;14.50;99.90;;;14.07;98.98;100805.31;4122974;28;20114;-77
2021/08/08 06:26:13;;;;;;;6.15;2.55;;;14.50;99.90;;;14.00;99.29;100793.78;4136383;28;20502;-77
2021/08/08 06:28:15;;;;;;;8.35;3.17;;;14.50;99.90;;;14.12;98.95;100810.94;4104675;29;20107;-77
2021/08/08 06:30:16;;;;;;;8.80;3.67;;;14.60;99.90;;;14.03;99.11;100796.09;4120943;28;20027;-77
2021/08/08 06:32:17;;;;;;;9.00;2.88;;;14.60;99.90;;;14.26;98.78;100811.00;4136924;28;20093;-77
2021/08/08 06:34:18;;;;;;;11.85;3.28;;;14.60;99.90;;;14.34;98.30;100797.69;4121062;28;20038;-77
2021/08/08 06:36:19;;;;;;;8.50;3.13;;;14.70;99.90;;;14.39;98.43;100821.03;4136709;28;20027;-78
2021/08/08 06:38:20;;;;;;;10.48;3.17;;;14.70;99.90;;;14.39;97.28;100797.94;4136862;28;20026;-78
2021/08/08 06:40:21;;;;;;;9.65;3.50;;;14.80;99.90;;;14.46;98.55;100815.81;4153042;28;20122;-77
2021/08/08 06:42:22;;;;;;;11.18;3.60;;;14.90;99.90;;;14.39;98.84;100821.84;4125044;28;20046;-78
2021/08/08 06:44:23;;;;;;;16.58;2.92;;;14.80;99.90;;;14.41;99.03;100824.34;4104314;29;20566;-77
2021/08/08 06:46:23;;;;;;;9.98;3.50;;;14.90;99.90;;;14.33;99.14;100806.66;4136313;28;20029;-78
2021/08/08 06:48:24;;;;;;;13.55;3.33;;;14.90;99.90;;;14.64;98.43;100826.94;4136861;28;20239;-77
2021/08/08 06:50:26;;;;;;;11.90;3.80;;;14.90;99.90;;;14.58;97.84;100817.88;4121865;28;20026;-78
2021/08/08 06:52:27;;;;;;;10.68;2.90;;;15.00;99.90;;;14.58;98.46;100825.84;4121692;28;20554;-78
2021/08/08 06:54:28;;;;;;;15.07;4.85;;;15.00;99.90;;;14.63;98.70;100828.78;4122043;28;20031;-78
2021/08/08 06:56:29;;;;;;;9.32;2.72;;;15.10;99.90;;;14.94;96.68;100836.59;4120612;28;20558;-77
2021/08/08 06:58:30;;;;;;;15.18;4.35;;;15.20;99.90;;;14.89;97.32;100834.50;4104380;29;20031;-77
2021/08/08 07:00:31;;;;;;;15.02;3.42;;;15.20;99.90;;;14.79;97.37;100830.44;4104003;28;20098;-77
2021/08/08 07:02:32;;;;;;;16.20;4.22;;;15.30;99.90;;;14.89;97.01;100834.50;4121694;28;20035;-77
2021/08/08 07:04:33;;;;;;;11.77;3.45;;;15.30;99.90;;;15.00;96.94;100835.03;4121584;28;20031;-78
2021/08/08 07:06:34;;;;;;;13.52;3.78;;;15.40;99.90;;;15.11;97.21;100851.38;4121870;28;20022;-77
2021/08/08 07:08:35;;;;;;;15.82;4.57;;;15.40;99.90;;;14.98;96.86;100823.78;4121452;28;20034;-77
2021/08/08 07:10:36;;;;;;;11.23;3.53;;;15.50;99.90;;;14.91;96.66;100819.19;4136343;28;20411;-77
2021/08/08 07:12:37;;;;;;;18.58;4.65;;;15.50;99.90;;;15.09;96.74;100832.13;4136265;28;20109;-77
2021/08/08 07:14:38;;;;;;;12.15;3.20;;;15.50;99.90;;;15.06;97.20;100823.69;4120199;28;20039;-77
2021/08/08 07:16:39;;;;;;;12.98;3.30;;;15.60;99.90;;;15.07;96.21;100836.81;4136043;28;20113;-78
2021/08/08 07:18:43;;;;;;;12.65;3.70;;;15.60;99.90;;;15.19;96.70;100851.28;4116679;28;20505;-78
2021/08/08 07:20:43;;;;;;;9.90;3.03;;;15.60;99.90;;;15.27;97.17;100847.69;4135960;28;20023;-77
2021/08/08 07:22:44;;;;;;;10.02;3.28;;;15.70;99.90;;;15.32;96.57;100846.13;4105568;28;20402;-77
2021/08/08 07:24:51;;;;;;;10.00;4.38;;;15.80;99.90;;;15.37;95.63;100833.13;4113412;28;20077;-78
2021/08/08 07:26:52;;;;;;;16.15;3.25;;;15.80;99.90;;;15.41;96.11;100839.72;4121583;28;20023;-78
2021/08/08 07:28:53;;;;;;;14.13;3.53;;;15.90;99.90;;;15.43;96.15;100834.22;4135542;28;20029;-77
2021/08/08 07:30:54;;;;;;;13.57;3.95;;;16.00;99.90;;;15.61;95.49;100848.00;4119965;28;20053;-77
2021/08/08 07:32:56;;;;;;;14.13;3.97;;;16.00;99.90;;;15.63;94.08;100847.78;4135760;28;20034;-78
2021/08/08 07:34:57;;;;;;;8.90;3.10;;;16.10;99.90;;;15.70;95.30;100864.66;4120091;28;20057;-78
2021/08/08 07:36:58;;;;;;;9.90;3.42;;;16.10;99.90;;;15.61;94.97;100871.09;4118745;28;20490;-77
2021/08/08 07:38:59;;;;;;;11.63;3.88;;;16.10;99.90;;;15.71;93.70;100856.47;4119717;28;20061;-77
2021/08/08 07:41:00;;;;;;;15.68;3.50;;;16.20;99.90;;;15.75;93.31;100862.25;4119507;28;20043;-78
2021/08/08 07:43:00;;;;;;;15.07;3.25;;;16.30;99.90;;;15.65;92.48;100846.59;4085996;29;20059;-77
2021/08/08 07:45:02;;;;;;;16.10;2.92;;;16.30;99.90;;;15.89;90.95;100870.19;4121017;28;20096;-76
2021/08/08 07:47:03;;;;;;;10.80;2.90;;;16.40;99.90;;;15.76;92.80;100864.75;4120059;28;20487;-75
2021/08/08 07:49:04;;;;;;;14.38;3.35;;;16.40;99.90;;;15.84;92.93;100877.09;4114134;28;20046;-76
2021/08/08 07:51:05;;;;;;;10.68;3.33;;;16.40;99.90;;;15.96;92.98;100875.59;4118639;28;20035;-77
2021/08/08 07:53:06;;;;;;;9.20;2.90;;;16.50;99.90;;;16.06;91.90;100868.16;4116299;28;20073;-77
2021/08/08 07:55:09;;;;;;;9.18;3.47;;;16.60;99.90;;;16.14;91.95;100868.03;4135046;28;20026;-77
2021/08/08 07:57:10;;;;;;;13.70;3.65;;;16.70;99.90;;;16.05;90.24;100867.31;4119928;28;20045;-77
2021/08/08 07:59:11;;;;;;;17.38;3.17;;;16.80;99.90;;;16.23;89.91;100869.56;4120544;28;20114;-77
2021/08/08 08:01:12;;;;;;;11.23;3.17;;;16.90;99.90;;;16.33;90.01;100872.75;4120500;28;20035;-76
2021/08/08 08:03:13;;;;;;;14.30;3.33;;;17.10;99.90;;;16.70;89.20;100881.47;4116436;28;20031;-77
2021/08/08 08:05:14;;;;;;;7.82;2.95;;;17.40;99.90;;;16.90;87.89;100883.31;4125868;28;20483;-78
2021/08/08 08:07:15;;;;;;;9.57;3.88;;;17.70;99.90;;;17.05;87.20;100880.53;4120253;28;20031;-76
2021/08/08 08:09:16;;;;;;;12.95;2.60;;;17.90;99.90;;;17.20;85.69;100897.25;4119868;28;20085;-76
2021/08/08 08:11:17;;;;;;;11.88;3.30;;;18.20;99.90;;;17.09;84.31;100876.44;4127083;28;20027;-76
2021/08/08 08:13:18;;;;;;;9.60;3.08;;;18.30;99.90;;;17.15;84.00;100884.50;4118205;28;20023;-76
2021/08/08 08:15:19;;;;;;;7.30;2.50;;;18.30;99.90;;;17.06;83.51;100884.84;4134941;28;20053;-76
2021/08/08 08:17:20;;;;;;;10.40;3.38;;;18.20;99.90;;;17.07;83.97;100887.31;4118789;28;20031;-76
2021/08/08 08:19:21;;;;;;;9.63;2.47;;;18.10;99.90;;;16.92;83.99;100893.75;4120155;28;20030;-76